Time;durP1;ratioP1;P1;durP2;ratioP2;P2;SDS_P1;SDS_P2;PMS_P1;PMS_P2;Temp;Humidity;BMP_temperature;BMP_pressure;BME280_temperature;BME280_humidity;BME280_pressure;Samples;Min_cycle;Max_cycle;Signal;HPM_P1;HPM_P2
2021/12/30 05:25:25;;;;;;;5.63;1.30;;;13.70;99.90;;;;;;5314134;23;20499;-82
2021/12/30 05:27:52;;;;;;;3.37;1.63;;;13.70;99.90;;;;;;5010959;28;20510;-80
2021/12/30 05:30:21;;;;;;;4.10;1.00;;;13.70;99.90;;;;;;4999573;28;20511;-81
2021/12/30 05:32:49;;;;;;;3.40;1.40;;;13.80;99.90;;;;;;4997167;28;20804;-81
2021/12/30 05:35:16;;;;;;;6.43;1.27;;;13.70;99.90;;;;;;4996144;28;20467;-81
2021/12/30 05:37:43;;;;;;;2.83;1.10;;;13.70;99.90;;;;;;4996936;28;20447;-81
2021/12/30 05:40:13;;;;;;;3.73;1.50;;;13.70;99.90;;;;;;4996912;28;20551;-81
2021/12/30 05:42:42;;;;;;;3.03;1.30;;;13.60;99.90;;;;;;5009134;28;20452;-81
2021/12/30 05:45:11;;;;;;;3.00;1.20;;;13.60;99.90;;;;;;5006309;28;20559;-81
2021/12/30 05:47:38;;;;;;;6.30;1.00;;;13.60;99.90;;;;;;4997651;28;20470;-81
2021/12/30 05:50:08;;;;;;;3.07;1.20;;;13.60;99.90;;;;;;4996751;28;20853;-81
2021/12/30 05:52:36;;;;;;;2.90;1.20;;;13.60;99.90;;;;;;4996923;28;20425;-81
2021/12/30 05:55:03;;;;;;;2.67;1.00;;;13.50;99.90;;;;;;4996612;28;20503;-81
2021/12/30 05:57:30;;;;;;;3.30;1.10;;;13.60;99.90;;;;;;5002331;28;20477;-81
2021/12/30 05:59:59;;;;;;;2.63;1.00;;;13.70;99.90;;;;;;5008266;28;20490;-81
2021/12/30 06:02:26;;;;;;;3.00;1.20;;;13.70;99.90;;;;;;4998293;28;20455;-81
2021/12/30 06:04:53;;;;;;;2.90;1.40;;;13.70;99.90;;;;;;4995907;28;20479;-81
2021/12/30 06:07:20;;;;;;;3.90;1.27;;;13.70;99.90;;;;;;4995046;28;20826;-81
2021/12/30 06:09:47;;;;;;;2.53;0.90;;;13.80;99.90;;;;;;4994483;28;20451;-81
2021/12/30 06:12:13;;;;;;;2.60;1.10;;;13.80;99.90;;;;;;4994765;28;20486;-81
2021/12/30 06:14:40;;;;;;;3.20;1.30;;;13.90;99.90;;;;;;4996460;28;20475;-81
2021/12/30 06:17:10;;;;;;;4.17;1.10;;;13.90;99.90;;;;;;4998892;28;20501;-81
2021/12/30 06:19:37;;;;;;;2.20;0.67;;;13.80;99.90;;;;;;4998543;28;20487;-81
2021/12/30 06:22:04;;;;;;;2.20;0.60;;;13.80;99.90;;;;;;4998307;28;20451;-82
2021/12/30 06:24:31;;;;;;;2.67;0.77;;;13.70;99.90;;;;;;4997841;28;20549;-81
2021/12/30 06:26:58;;;;;;;2.20;0.60;;;13.80;99.90;;;;;;4998274;28;20461;-81
2021/12/30 06:29:25;;;;;;;2.70;1.00;;;13.80;99.90;;;;;;5000271;28;20454;-81
2021/12/30 06:31:51;;;;;;;3.20;0.70;;;13.80;99.90;;;;;;5003965;28;20465;-81
2021/12/30 06:34:20;;;;;;;2.20;0.70;;;13.80;99.90;;;;;;4998373;28;20562;-81
2021/12/30 06:36:47;;;;;;;2.50;1.10;;;13.80;99.90;;;;;;4998507;28;20429;-81
2021/12/30 06:39:13;;;;;;;3.90;0.70;;;13.80;99.90;;;;;;5004680;28;20578;-81
2021/12/30 06:41:40;;;;;;;2.80;0.90;;;13.80;99.90;;;;;;5009696;28;20483;-81
2021/12/30 06:44:07;;;;;;;2.60;0.90;;;13.90;99.90;;;;;;5004120;28;20446;-81
2021/12/30 06:46:34;;;;;;;2.60;0.97;;;13.90;99.90;;;;;;4997917;28;20443;-82
2021/12/30 06:49:03;;;;;;;2.70;0.90;;;13.90;99.90;;;;;;4998018;28;20538;-81
2021/12/30 06:51:35;;;;;;;2.33;0.80;;;14.00;99.90;;;;;;4998317;28;20500;-82
2021/12/30 06:54:02;;;;;;;3.23;1.10;;;14.00;99.90;;;;;;4997502;28;20517;-81
2021/12/30 06:56:28;;;;;;;2.70;0.80;;;14.00;99.90;;;;;;4998200;28;20448;-81
2021/12/30 06:58:55;;;;;;;2.70;0.90;;;14.00;99.90;;;;;;4997860;28;20541;-82
2021/12/30 07:01:22;;;;;;;2.20;0.60;;;14.00;99.90;;;;;;4998979;28;20418;-81
2021/12/30 07:03:49;;;;;;;3.37;1.53;;;14.00;99.90;;;;;;4999803;28;20430;-81
2021/12/30 07:06:16;;;;;;;7.27;1.43;;;14.00;99.90;;;;;;5000037;28;20461;-81
2021/12/30 07:08:44;;;;;;;2.83;0.93;;;13.90;99.90;;;;;;4997984;28;20455;-81
2021/12/30 07:11:11;;;;;;;3.90;1.10;;;13.90;99.90;;;;;;4997976;28;20545;-82
2021/12/30 07:13:38;;;;;;;5.40;1.20;;;13.90;99.90;;;;;;5012411;28;20514;-81
2021/12/30 07:16:06;;;;;;;2.60;0.90;;;14.00;99.90;;;;;;4998001;28;20455;-81
2021/12/30 07:18:33;;;;;;;2.80;0.90;;;14.00;99.90;;;;;;4997692;28;20441;-82
2021/12/30 07:21:00;;;;;;;3.00;0.80;;;14.00;99.90;;;;;;4997234;28;20565;-81
2021/12/30 07:23:27;;;;;;;2.93;1.00;;;14.00;99.90;;;;;;4996922;28;20539;-82
2021/12/30 07:25:55;;;;;;;2.27;0.77;;;14.00;99.90;;;;;;4996254;28;20519;-82
2021/12/30 07:28:22;;;;;;;2.73;0.70;;;13.90;99.90;;;;;;5003373;28;20906;-81
2021/12/30 07:30:49;;;;;;;3.40;0.90;;;13.90;99.90;;;;;;4997884;28;20455;-82
2021/12/30 07:33:16;;;;;;;5.23;0.80;;;13.90;99.90;;;;;;4997724;28;20459;-81
2021/12/30 07:35:43;;;;;;;2.80;0.90;;;13.90;99.90;;;;;;4996813;28;20553;-81
2021/12/30 07:38:10;;;;;;;2.50;0.93;;;13.80;99.90;;;;;;4997362;28;20489;-81
2021/12/30 07:40:37;;;;;;;2.97;1.10;;;13.90;99.90;;;;;;4997079;28;20836;-82
2021/12/30 07:43:05;;;;;;;3.07;1.10;;;13.90;99.90;;;;;;4997522;28;20469;-81
2021/12/30 07:45:32;;;;;;;2.50;0.87;;;13.80;99.90;;;;;;4996591;28;20506;-81
2021/12/30 07:47:59;;;;;;;2.80;0.90;;;13.80;99.90;;;;;;4997035;28;20490;-81
2021/12/30 07:50:26;;;;;;;2.60;0.90;;;13.80;99.90;;;;;;5002093;28;20430;-81
2021/12/30 07:52:53;;;;;;;2.70;1.00;;;13.80;99.90;;;;;;5002353;28;20490;-80
2021/12/30 07:55:20;;;;;;;4.43;0.93;;;13.80;99.90;;;;;;4998573;28;20534;-81
2021/12/30 07:57:46;;;;;;;3.73;1.10;;;13.80;99.90;;;;;;4996606;28;20464;-82
2021/12/30 08:00:17;;;;;;;2.90;0.97;;;13.90;99.90;;;;;;4996339;28;20497;-82
2021/12/30 08:02:45;;;;;;;2.77;0.90;;;13.90;99.90;;;;;;4996984;28;20497;-81
2021/12/30 08:05:15;;;;;;;2.40;0.80;;;13.90;99.90;;;;;;4999084;28;20475;-81
2021/12/30 08:07:45;;;;;;;5.93;1.20;;;13.90;99.90;;;;;;5001991;28;20908;-81
2021/12/30 08:10:14;;;;;;;2.50;0.90;;;14.00;99.90;;;;;;4996708;28;20818;-81
2021/12/30 08:12:43;;;;;;;4.43;1.43;;;14.10;99.90;;;;;;5003735;28;20843;-81
2021/12/30 08:15:11;;;;;;;2.70;0.93;;;14.10;99.90;;;;;;5003925;28;20482;-81
2021/12/30 08:17:40;;;;;;;5.43;1.13;;;14.10;99.90;;;;;;5004610;28;20565;-81
2021/12/30 08:20:09;;;;;;;2.60;1.20;;;14.10;99.90;;;;;;4996425;28;20499;-81
2021/12/30 08:22:37;;;;;;;2.53;1.00;;;14.20;99.90;;;;;;4996072;28;20547;-81
2021/12/30 08:25:05;;;;;;;2.60;0.90;;;14.20;99.90;;;;;;4995192;28;20466;-81
2021/12/30 08:27:32;;;;;;;2.60;0.90;;;14.30;99.90;;;;;;4996001;28;20451;-80
2021/12/30 08:29:59;;;;;;;2.50;0.80;;;14.30;99.90;;;;;;4995726;28;20513;-81
2021/12/30 08:32:26;;;;;;;2.50;0.97;;;14.40;99.90;;;;;;4996580;28;20458;-81
2021/12/30 08:34:54;;;;;;;3.00;0.90;;;14.40;99.90;;;;;;4995616;28;20536;-80
2021/12/30 08:37:21;;;;;;;2.90;1.03;;;14.40;99.90;;;;;;4996216;28;20456;-82
2021/12/30 08:39:48;;;;;;;3.50;1.40;;;14.40;99.90;;;;;;4995414;28;20529;-81
2021/12/30 08:42:20;;;;;;;2.63;0.87;;;14.40;99.90;;;;;;4996355;28;20457;-81
2021/12/30 08:44:48;;;;;;;3.00;0.97;;;14.40;99.90;;;;;;4995786;28;20478;-81
2021/12/30 08:47:15;;;;;;;2.97;1.30;;;14.40;99.90;;;;;;4995991;28;20478;-81
2021/12/30 08:49:45;;;;;;;2.70;1.30;;;14.50;99.90;;;;;;4996037;28;20454;-82
2021/12/30 08:52:15;;;;;;;3.10;1.40;;;14.50;99.90;;;;;;5002061;28;20445;-81
2021/12/30 08:54:42;;;;;;;3.13;0.80;;;14.40;99.90;;;;;;5005315;28;20499;-81
2021/12/30 08:57:09;;;;;;;2.77;1.00;;;14.40;99.90;;;;;;5006701;28;20455;-80
2021/12/30 08:59:37;;;;;;;2.90;1.23;;;14.40;99.90;;;;;;5005519;28;20490;-81
2021/12/30 09:02:05;;;;;;;2.43;0.80;;;14.50;99.90;;;;;;4995341;28;20430;-80
2021/12/30 09:04:32;;;;;;;2.90;1.00;;;14.50;99.90;;;;;;4995524;28;20545;-80
2021/12/30 09:06:59;;;;;;;2.70;0.80;;;14.50;99.90;;;;;;4995854;28;20775;-82
2021/12/30 09:09:28;;;;;;;2.10;0.67;;;14.50;99.90;;;;;;4995565;28;20429;-80
2021/12/30 09:11:56;;;;;;;3.03;1.10;;;14.60;99.90;;;;;;4994802;28;20482;-81
2021/12/30 09:14:23;;;;;;;3.00;1.20;;;14.60;99.90;;;;;;4994754;28;20477;-80
2021/12/30 09:16:51;;;;;;;4.20;0.90;;;14.60;99.90;;;;;;4994535;28;20463;-80
2021/12/30 09:19:19;;;;;;;3.33;1.10;;;14.70;99.90;;;;;;5001424;28;20483;-81
2021/12/30 09:21:46;;;;;;;3.10;1.10;;;14.70;99.90;;;;;;5004020;28;20602;-80
2021/12/30 09:24:13;;;;;;;2.60;0.80;;;14.70;99.90;;;;;;4998997;28;21010;-80
2021/12/30 09:26:41;;;;;;;3.17;0.80;;;14.80;99.90;;;;;;4997857;28;20415;-81
2021/12/30 09:29:11;;;;;;;3.33;1.20;;;14.90;99.90;;;;;;4997330;28;20501;-80
2021/12/30 09:31:39;;;;;;;2.30;0.60;;;15.00;99.90;;;;;;4995379;28;20482;-80
2021/12/30 09:34:06;;;;;;;2.63;0.90;;;15.00;99.90;;;;;;4994376;28;20536;-81
2021/12/30 09:36:33;;;;;;;5.80;1.37;;;15.10;99.90;;;;;;4994818;28;20440;-81
2021/12/30 09:39:00;;;;;;;2.77;0.93;;;15.10;99.90;;;;;;4994973;28;20434;-81
2021/12/30 09:41:27;;;;;;;2.60;1.00;;;15.10;99.90;;;;;;5000214;28;20469;-80
2021/12/30 09:43:55;;;;;;;2.40;0.63;;;15.20;99.90;;;;;;4997378;28;20465;-81
2021/12/30 09:46:23;;;;;;;2.60;0.90;;;15.20;99.90;;;;;;4997235;28;20541;-81
2021/12/30 09:48:50;;;;;;;2.50;0.80;;;15.30;99.90;;;;;;4996527;28;20447;-81
2021/12/30 09:51:17;;;;;;;3.13;1.00;;;15.30;99.90;;;;;;4998472;28;20513;-81
2021/12/30 09:53:44;;;;;;;3.00;1.20;;;15.30;99.90;;;;;;4998738;28;20451;-80
2021/12/30 09:56:10;;;;;;;3.67;1.30;;;15.40;99.90;;;;;;4998465;28;20526;-81
2021/12/30 09:58:37;;;;;;;3.77;1.50;;;15.40;99.90;;;;;;4998380;28;20483;-81
2021/12/30 10:01:05;;;;;;;2.77;1.00;;;15.40;99.90;;;;;;4997969;28;20469;-81
2021/12/30 10:03:35;;;;;;;3.53;1.30;;;15.40;99.90;;;;;;4998601;28;20492;-80
2021/12/30 10:06:07;;;;;;;2.67;1.10;;;15.40;99.90;;;;;;4997874;28;20454;-81
2021/12/30 10:08:36;;;;;;;2.70;1.00;;;15.50;99.90;;;;;;4999584;28;20475;-80
2021/12/30 10:11:11;;;;;;;2.80;0.90;;;15.40;99.90;;;;;;5001586;28;20493;-81
2021/12/30 10:13:41;;;;;;;3.20;1.10;;;15.40;99.90;;;;;;4998901;28;20516;-81
2021/12/30 10:16:15;;;;;;;6.40;1.17;;;15.50;99.90;;;;;;5003804;28;20459;-80
2021/12/30 10:18:44;;;;;;;2.60;1.00;;;15.50;99.90;;;;;;5000274;28;20454;-81
2021/12/30 10:21:17;;;;;;;2.80;0.70;;;15.50;99.90;;;;;;5004343;28;20524;-80
2021/12/30 10:23:46;;;;;;;3.47;1.20;;;15.60;99.90;;;;;;4999786;28;20526;-81
2021/12/30 10:26:14;;;;;;;3.27;1.23;;;15.60;99.90;;;;;;4997897;28;20439;-81
2021/12/30 10:28:43;;;;;;;2.60;1.03;;;15.60;99.90;;;;;;4998311;28;20795;-81
2021/12/30 10:31:21;;;;;;;3.80;1.17;;;15.60;99.90;;;;;;4998521;28;20474;-81
2021/12/30 10:33:51;;;;;;;2.80;0.90;;;15.60;99.90;;;;;;4998225;28;20468;-81
2021/12/30 10:36:20;;;;;;;3.37;1.17;;;15.60;99.90;;;;;;4999022;28;20418;-81
2021/12/30 10:38:47;;;;;;;2.87;1.00;;;15.60;99.90;;;;;;5005079;28;20538;-81
2021/12/30 10:41:14;;;;;;;2.80;0.90;;;15.60;99.90;;;;;;5004913;28;20976;-81
2021/12/30 10:43:46;;;;;;;3.37;1.30;;;15.70;99.90;;;;;;5014324;28;20422;-81
2021/12/30 10:46:19;;;;;;;4.67;1.83;;;15.70;99.90;;;;;;5004590;28;20446;-79
2021/12/30 10:48:53;;;;;;;3.40;1.20;;;15.80;99.90;;;;;;5005965;28;20470;-80
2021/12/30 10:51:23;;;;;;;2.80;1.10;;;15.80;99.90;;;;;;5009422;28;20403;-80
2021/12/30 10:53:51;;;;;;;2.60;0.87;;;16.00;99.90;;;;;;5009138;28;20494;-80
2021/12/30 10:56:30;;;;;;;12.10;1.60;;;15.90;99.90;;;;;;5008677;28;20527;-80
2021/12/30 10:59:10;;;;;;;3.50;1.60;;;15.90;99.90;;;;;;5007852;28;20449;-81
2021/12/30 11:01:44;;;;;;;4.90;1.23;;;16.00;99.90;;;;;;4998171;28;20477;-81
2021/12/30 11:04:11;;;;;;;3.10;1.20;;;16.00;99.90;;;;;;4997822;28;20485;-81
2021/12/30 11:06:39;;;;;;;3.17;1.20;;;16.00;99.90;;;;;;4997926;28;20451;-81
2021/12/30 11:09:15;;;;;;;2.77;1.20;;;16.10;99.90;;;;;;4998340;28;20512;-82
2021/12/30 11:11:47;;;;;;;3.80;1.60;;;16.20;99.90;;;;;;5004756;28;20435;-81
2021/12/30 11:14:16;;;;;;;3.13;1.33;;;16.30;99.90;;;;;;4998030;28;20506;-81
2021/12/30 11:17:02;;;;;;;3.73;1.50;;;16.40;99.90;;;;;;5000744;28;20430;-81
2021/12/30 11:19:31;;;;;;;5.33;1.67;;;16.40;99.90;;;;;;4999680;28;20425;-82
2021/12/30 11:21:59;;;;;;;2.73;0.90;;;16.50;99.90;;;;;;4997587;28;20507;-82
2021/12/30 17:25:26;;;;;;;5.80;3.00;;;16.10;99.90;;;;;;4479656;22;20527;-81
2021/12/30 17:27:55;;;;;;;5.77;2.70;;;16.10;99.90;;;;;;5018113;28;20421;-82
2021/12/30 17:30:23;;;;;;;4.93;2.87;;;16.10;99.90;;;;;;5022158;28;20489;-81
2021/12/30 17:32:50;;;;;;;5.30;3.20;;;16.10;99.90;;;;;;5019061;28;20431;-81
2021/12/30 17:35:17;;;;;;;9.57;3.03;;;16.10;99.90;;;;;;5021155;28;20488;-82
2021/12/30 17:37:44;;;;;;;4.00;2.47;;;16.10;99.90;;;;;;5023416;28;20551;-82
2021/12/30 17:40:13;;;;;;;7.40;2.60;;;16.10;99.90;;;;;;5021717;28;20455;-82
2021/12/30 17:42:44;;;;;;;3.90;2.10;;;16.20;99.90;;;;;;5018244;28;20464;-81
2021/12/30 17:45:12;;;;;;;6.80;3.80;;;16.20;99.90;;;;;;5017542;28;20448;-81
2021/12/30 17:47:45;;;;;;;6.57;3.47;;;16.20;99.90;;;;;;5026523;28;20469;-81
2021/12/30 17:50:12;;;;;;;9.53;4.67;;;16.20;99.90;;;;;;5019492;28;20434;-81
2021/12/30 17:52:39;;;;;;;7.00;5.13;;;16.10;99.90;;;;;;5017690;28;20453;-81
2021/12/30 17:55:06;;;;;;;6.30;4.10;;;16.10;99.90;;;;;;5017297;28;20529;-81
2021/12/30 17:57:33;;;;;;;6.73;4.17;;;16.20;99.90;;;;;;5017301;28;20454;-82
2021/12/30 18:00:03;;;;;;;7.60;4.70;;;16.20;99.90;;;;;;5017352;28;20447;-82
2021/12/30 18:02:30;;;;;;;6.10;3.37;;;16.20;99.90;;;;;;5017581;28;20486;-81
2021/12/30 18:04:57;;;;;;;7.13;4.57;;;16.20;99.90;;;;;;5017714;28;20811;-82
2021/12/30 18:07:24;;;;;;;9.13;4.70;;;16.20;99.90;;;;;;5020012;28;20490;-81
2021/12/30 18:09:51;;;;;;;6.70;3.90;;;16.20;99.90;;;;;;5019129;28;20505;-81
2021/12/30 18:12:18;;;;;;;7.60;4.70;;;16.20;99.90;;;;;;5025265;28;20455;-81
2021/12/30 18:14:45;;;;;;;6.97;4.10;;;16.10;99.90;;;;;;5036086;28;20990;-80
2021/12/30 18:17:13;;;;;;;4.90;3.30;;;16.10;99.90;;;;;;5035932;28;20496;-80
2021/12/30 18:19:40;;;;;;;7.90;2.90;;;16.10;99.90;;;;;;5036381;28;20426;-81
2021/12/30 18:22:07;;;;;;;4.77;2.70;;;15.90;99.90;;;;;;5035828;28;20478;-80
2021/12/30 18:24:34;;;;;;;9.00;3.40;;;15.90;99.90;;;;;;5023854;28;21804;-81
2021/12/30 18:27:02;;;;;;;6.13;3.10;;;15.90;99.90;;;;;;5019904;28;20440;-83
2021/12/30 18:29:29;;;;;;;4.97;3.30;;;16.00;99.90;;;;;;5020699;28;20500;-82
2021/12/30 18:32:00;;;;;;;7.17;3.70;;;16.00;99.90;;;;;;5020174;28;20425;-83
2021/12/30 18:34:28;;;;;;;6.33;3.57;;;16.00;99.90;;;;;;5019793;28;20501;-82
2021/12/30 18:36:55;;;;;;;6.80;3.90;;;16.00;99.90;;;;;;5020426;28;20425;-81
2021/12/30 18:39:23;;;;;;;8.00;6.23;;;16.00;99.90;;;;;;5026639;28;20587;-81
2021/12/30 18:41:50;;;;;;;7.33;4.90;;;15.90;99.90;;;;;;5028817;28;20985;-81
2021/12/30 18:44:16;;;;;;;6.20;4.30;;;15.90;99.90;;;;;;5025011;28;20421;-81
2021/12/30 18:46:43;;;;;;;8.10;4.73;;;15.90;99.90;;;;;;5023887;28;20810;-81
2021/12/30 18:49:10;;;;;;;6.90;4.40;;;16.00;99.90;;;;;;5022059;28;20440;-82
2021/12/30 18:51:39;;;;;;;7.57;5.07;;;15.90;99.90;;;;;;5020558;28;20421;-82
2021/12/30 18:54:06;;;;;;;7.73;5.30;;;15.90;99.90;;;;;;5031235;28;20449;-81
2021/12/30 18:56:32;;;;;;;8.80;5.10;;;15.80;99.90;;;;;;5026906;28;20466;-82
2021/12/30 18:58:59;;;;;;;7.40;5.30;;;15.70;99.90;;;;;;5019549;28;20489;-81
2021/12/30 19:01:26;;;;;;;9.00;4.50;;;15.70;99.90;;;;;;5019118;28;20848;-81
2021/12/30 19:03:53;;;;;;;9.10;4.60;;;15.60;99.90;;;;;;5020755;28;20507;-81
2021/12/30 19:06:20;;;;;;;9.03;4.47;;;15.60;99.90;;;;;;5019997;28;20466;-83
2021/12/30 19:08:49;;;;;;;8.20;5.10;;;15.60;99.90;;;;;;5019911;28;20459;-82
2021/12/30 19:11:16;;;;;;;8.80;5.00;;;15.60;99.90;;;;;;5020505;28;20464;-81
2021/12/30 19:13:43;;;;;;;8.93;5.17;;;15.40;99.90;;;;;;5024958;28;20435;-81
2021/12/30 19:16:11;;;;;;;8.07;5.27;;;15.40;99.90;;;;;;5026087;28;20448;-81
2021/12/30 19:18:38;;;;;;;8.30;4.10;;;15.40;99.90;;;;;;5019149;28;20456;-81
2021/12/30 19:21:06;;;;;;;6.47;3.90;;;15.40;99.90;;;;;;5018820;28;20458;-81
2021/12/30 19:23:34;;;;;;;6.67;3.90;;;15.30;99.90;;;;;;5018640;28;20486;-81
2021/12/30 19:26:04;;;;;;;5.20;2.63;;;15.30;99.90;;;;;;5018653;28;20464;-81
2021/12/30 19:28:31;;;;;;;3.77;2.00;;;15.30;99.90;;;;;;5019415;28;20457;-80
2021/12/30 19:30:58;;;;;;;6.93;2.50;;;15.20;99.90;;;;;;5018446;28;20465;-80
2021/12/30 19:33:25;;;;;;;3.80;1.97;;;15.30;99.90;;;;;;5018995;28;20540;-82
2021/12/30 19:35:54;;;;;;;4.77;2.70;;;15.30;99.90;;;;;;5019063;28;20551;-82
2021/12/30 19:38:21;;;;;;;7.53;2.17;;;15.30;99.90;;;;;;5018890;28;20448;-80
2021/12/30 19:40:48;;;;;;;4.60;2.57;;;15.30;99.90;;;;;;5018396;28;20512;-79
2021/12/30 19:43:17;;;;;;;7.70;4.27;;;15.30;99.90;;;;;;5017882;28;20546;-79
2021/12/30 19:45:44;;;;;;;4.97;2.73;;;15.30;99.90;;;;;;5018362;28;20498;-79
2021/12/30 19:48:14;;;;;;;5.73;2.80;;;15.30;99.90;;;;;;5018529;28;20473;-80
2021/12/30 19:50:42;;;;;;;5.80;3.23;;;15.40;99.90;;;;;;5018998;28;20455;-81
2021/12/30 19:53:10;;;;;;;7.10;2.60;;;15.40;99.90;;;;;;5018573;28;20454;-81
2021/12/30 19:55:38;;;;;;;5.70;2.43;;;15.40;99.90;;;;;;5018597;28;20476;-81
2021/12/30 19:58:05;;;;;;;4.67;2.23;;;15.40;99.90;;;;;;5019364;28;20832;-82
2021/12/30 20:00:36;;;;;;;6.53;3.07;;;15.50;99.90;;;;;;5019978;28;20454;-81
2021/12/30 20:03:06;;;;;;;4.53;2.53;;;15.50;99.90;;;;;;5020123;28;20478;-81
2021/12/30 20:05:34;;;;;;;6.73;2.57;;;15.50;99.90;;;;;;5022807;28;20481;-79
2021/12/30 20:08:01;;;;;;;5.87;3.13;;;15.60;99.90;;;;;;5026808;28;20465;-79
2021/12/30 20:10:28;;;;;;;6.60;3.73;;;15.50;99.90;;;;;;5025657;28;20454;-83
2021/12/30 20:12:55;;;;;;;8.80;4.00;;;15.50;99.90;;;;;;5020350;28;20442;-81
2021/12/30 20:15:22;;;;;;;5.80;2.83;;;15.50;99.90;;;;;;5019331;28;20498;-81
2021/12/30 20:17:50;;;;;;;5.43;2.93;;;15.50;99.90;;;;;;5019997;28;20454;-81
2021/12/30 20:20:18;;;;;;;6.27;2.50;;;15.50;99.90;;;;;;5020558;28;20513;-81
2021/12/30 20:22:48;;;;;;;4.90;3.00;;;15.40;99.90;;;;;;5017548;28;20463;-80
2021/12/30 20:25:17;;;;;;;6.37;3.70;;;15.40;99.90;;;;;;5018048;28;20486;-82
2021/12/30 20:27:45;;;;;;;5.87;3.10;;;15.30;99.90;;;;;;5019198;28;20455;-81
2021/12/30 20:30:14;;;;;;;6.20;3.87;;;15.20;99.90;;;;;;5021001;28;20482;-80
2021/12/30 20:32:42;;;;;;;4.83;2.40;;;15.20;99.90;;;;;;5019139;28;20474;-80
2021/12/30 20:35:11;;;;;;;3.77;1.80;;;15.10;99.90;;;;;;5020501;28;20553;-81
2021/12/30 20:37:38;;;;;;;4.87;2.20;;;15.10;99.90;;;;;;5018952;28;20805;-79
2021/12/30 20:40:07;;;;;;;4.23;2.30;;;15.20;99.90;;;;;;5018971;28;20476;-82
2021/12/30 20:42:34;;;;;;;5.60;2.73;;;15.20;99.90;;;;;;5026429;28;21096;-81
2021/12/30 20:45:02;;;;;;;8.13;3.43;;;15.30;99.90;;;;;;5016725;28;20475;-78
2021/12/30 20:47:30;;;;;;;6.97;2.70;;;15.20;99.90;;;;;;5015235;28;20516;-78
2021/12/30 20:49:57;;;;;;;3.93;2.10;;;15.20;99.90;;;;;;5016761;28;20453;-77
2021/12/30 20:52:27;;;;;;;4.80;2.20;;;15.20;99.90;;;;;;5014154;28;20451;-79
2021/12/30 20:54:54;;;;;;;5.13;2.30;;;15.20;99.90;;;;;;5014366;28;20461;-78
2021/12/30 20:57:21;;;;;;;3.67;1.77;;;15.20;99.90;;;;;;5014412;28;20461;-79
2021/12/30 20:59:47;;;;;;;4.10;2.50;;;15.10;99.90;;;;;;5015935;28;20512;-79
2021/12/30 21:02:14;;;;;;;4.00;2.07;;;15.10;99.90;;;;;;5016450;28;20489;-80
2021/12/30 21:04:41;;;;;;;4.70;2.47;;;15.10;99.90;;;;;;5020074;28;20474;-78
2021/12/30 21:07:08;;;;;;;3.73;1.63;;;15.10;99.90;;;;;;5026160;28;20522;-81
2021/12/30 21:09:36;;;;;;;6.67;2.20;;;15.10;99.90;;;;;;5028013;28;20436;-81
2021/12/30 21:12:03;;;;;;;5.03;2.27;;;15.10;99.90;;;;;;5019554;28;20504;-82
2021/12/30 21:14:30;;;;;;;7.77;2.03;;;15.10;99.90;;;;;;5020088;28;20450;-83
2021/12/30 21:16:57;;;;;;;5.23;1.90;;;15.10;99.90;;;;;;5019281;28;20509;-81
2021/12/30 21:19:25;;;;;;;4.53;2.00;;;15.10;99.90;;;;;;5018669;28;20432;-81
2021/12/30 21:21:53;;;;;;;4.60;2.27;;;15.20;99.90;;;;;;5018563;28;20425;-81
2021/12/30 21:24:21;;;;;;;4.70;2.53;;;15.10;99.90;;;;;;5018597;28;20558;-83
2021/12/30 21:26:50;;;;;;;4.60;2.87;;;15.20;99.90;;;;;;5019231;28;20793;-82
2021/12/30 21:29:17;;;;;;;5.70;2.50;;;15.30;99.90;;;;;;5025632;28;20512;-81
2021/12/30 21:31:43;;;;;;;4.90;2.13;;;15.30;99.90;;;;;;5018446;28;20816;-82
2021/12/30 21:34:10;;;;;;;7.87;4.20;;;15.30;99.90;;;;;;5017981;28;20510;-81
2021/12/30 21:36:37;;;;;;;4.20;2.57;;;15.40;99.90;;;;;;5017842;28;20860;-81
2021/12/30 21:39:05;;;;;;;6.00;3.10;;;15.40;99.90;;;;;;5017258;28;20509;-81
2021/12/30 21:41:32;;;;;;;5.27;2.37;;;15.30;99.90;;;;;;5017592;28;20954;-81
2021/12/30 21:44:01;;;;;;;4.50;2.60;;;15.30;99.90;;;;;;5017364;28;21021;-81
2021/12/30 21:46:28;;;;;;;5.30;2.70;;;15.30;99.90;;;;;;5021493;28;20476;-81
2021/12/30 21:48:55;;;;;;;6.70;2.50;;;15.40;99.90;;;;;;5021780;28;20467;-81
2021/12/30 21:51:22;;;;;;;3.23;1.63;;;15.30;99.90;;;;;;5022322;28;20432;-82
2021/12/30 21:53:49;;;;;;;4.33;2.33;;;15.30;99.90;;;;;;5022485;28;20511;-82
2021/12/30 21:56:17;;;;;;;4.50;2.17;;;15.30;99.90;;;;;;5020811;28;20470;-80
2021/12/30 21:58:45;;;;;;;5.40;2.10;;;15.30;99.90;;;;;;5020724;28;20439;-80
2021/12/30 22:01:14;;;;;;;6.43;2.10;;;15.40;99.90;;;;;;5020087;28;20440;-80
2021/12/30 22:03:41;;;;;;;4.80;2.60;;;15.30;99.90;;;;;;5019376;28;20499;-79
2021/12/30 22:06:08;;;;;;;5.10;2.60;;;15.40;99.90;;;;;;5019325;28;20842;-79
2021/12/30 22:08:35;;;;;;;5.57;2.50;;;15.30;99.90;;;;;;5019718;28;20429;-79
2021/12/30 22:11:03;;;;;;;5.37;2.40;;;15.30;99.90;;;;;;5019600;28;20437;-79
2021/12/30 22:13:30;;;;;;;4.70;2.27;;;15.20;99.90;;;;;;5018485;28;20551;-79
2021/12/30 22:15:59;;;;;;;4.23;2.40;;;15.30;99.90;;;;;;5020692;28;20474;-82
2021/12/30 22:18:29;;;;;;;6.07;2.90;;;15.30;99.90;;;;;;5021257;28;20457;-82
2021/12/30 22:20:57;;;;;;;4.93;2.40;;;15.30;99.90;;;;;;5020961;28;20500;-81
2021/12/30 22:23:26;;;;;;;5.40;2.20;;;15.30;99.90;;;;;;5021332;28;20453;-83
2021/12/30 22:25:53;;;;;;;8.80;3.53;;;15.30;99.90;;;;;;5023225;28;20468;-81
2021/12/30 22:28:21;;;;;;;4.53;2.43;;;15.20;99.90;;;;;;5021914;28;20798;-81
2021/12/30 22:30:49;;;;;;;3.60;1.87;;;15.20;99.90;;;;;;5020722;28;20564;-81
2021/12/30 22:33:16;;;;;;;3.87;2.20;;;15.20;99.90;;;;;;5020757;28;20435;-82
2021/12/30 22:35:45;;;;;;;5.17;2.00;;;15.20;99.90;;;;;;5021305;28;20955;-82
2021/12/30 22:38:12;;;;;;;4.40;1.87;;;15.20;99.90;;;;;;5021639;28;20425;-82
2021/12/30 22:40:39;;;;;;;5.23;2.77;;;15.20;99.90;;;;;;5025062;28;20496;-82
2021/12/30 22:43:06;;;;;;;5.53;2.83;;;15.20;99.90;;;;;;5031692;28;20483;-82
2021/12/30 22:45:33;;;;;;;5.10;2.30;;;15.20;99.90;;;;;;5029809;28;20440;-82
2021/12/30 22:48:04;;;;;;;4.80;1.97;;;15.20;99.90;;;;;;5020536;28;20425;-82
2021/12/30 22:50:31;;;;;;;4.67;1.93;;;15.10;99.90;;;;;;5021219;28;20432;-82
2021/12/30 22:53:00;;;;;;;3.30;1.97;;;15.10;99.90;;;;;;5025725;28;20521;-82
2021/12/30 22:55:27;;;;;;;3.90;2.03;;;15.10;99.90;;;;;;5026005;28;20455;-82
2021/12/30 22:57:54;;;;;;;7.30;2.20;;;15.00;99.90;;;;;;5019220;28;20431;-82
2021/12/30 23:00:27;;;;;;;5.30;3.00;;;14.90;99.90;;;;;;5019777;28;20644;-81
2021/12/30 23:02:54;;;;;;;3.73;2.20;;;14.90;99.90;;;;;;5022078;28;20890;-81
2021/12/30 23:05:21;;;;;;;5.10;2.07;;;14.90;99.90;;;;;;5019807;28;20547;-81
2021/12/30 23:07:48;;;;;;;4.10;2.23;;;14.90;99.90;;;;;;5018542;28;20558;-81
2021/12/30 23:10:17;;;;;;;5.40;2.20;;;14.90;99.90;;;;;;5018588;28;20458;-81
2021/12/30 23:12:44;;;;;;;5.60;2.50;;;14.90;99.90;;;;;;5019058;28;20566;-82
2021/12/30 23:15:12;;;;;;;5.17;2.40;;;15.00;99.90;;;;;;5020094;28;20445;-81
2021/12/30 23:17:39;;;;;;;6.80;3.13;;;15.00;99.90;;;;;;5031527;28;20926;-81
2021/12/30 23:20:08;;;;;;;4.00;1.90;;;15.00;99.90;;;;;;5025303;28;20433;-82
2021/12/30 23:22:37;;;;;;;6.47;3.20;;;15.00;99.90;;;;;;5021018;28;20421;-82
2021/12/30 23:30:57;;;;;;;6.70;2.70;;;15.10;99.90;;;;;;5006573;28;20429;-88
2021/12/30 23:33:55;;;;;;;3.97;1.60;;;15.10;99.90;;;;;;5025634;28;20439;-89
2021/12/30 23:36:33;;;;;;;4.37;2.30;;;15.10;99.90;;;;;;5023751;28;21045;-88
2021/12/30 23:39:17;;;;;;;;;;;;;;;;;;;;;
2021/12/30 23:41:59;;;;;;;5.10;2.40;;;15.10;99.90;;;;;;5024542;28;20425;-88
2021/12/30 23:44:37;;;;;;;3.50;2.07;;;15.10;99.90;;;;;;5019758;28;20438;-89
2021/12/30 23:50:20;;;;;;;4.50;2.30;;;14.90;99.90;;;;;;5017338;28;20808;-88
2021/12/30 23:53:27;;;;;;;5.33;2.23;;;14.90;99.90;;;;;;5018390;28;20443;-88
